createdAt,value
2023-02-14T00:00:49.370Z,0.00
2023-02-14T00:01:49.369Z,0.00
2023-02-14T00:02:49.634Z,0.00
2023-02-14T00:03:49.105Z,0.00
2023-02-14T00:04:49.234Z,0.00
2023-02-14T00:05:49.034Z,0.00
2023-02-14T00:06:49.271Z,0.00
2023-02-14T00:07:49.183Z,0.00
2023-02-14T00:08:49.083Z,0.00
2023-02-14T00:09:49.279Z,0.00
2023-02-14T00:10:49.073Z,0.00
2023-02-14T00:11:49.401Z,0.00
2023-02-14T00:12:49.139Z,0.00
2023-02-14T00:13:49.117Z,0.00
2023-02-14T00:14:48.961Z,0.00
2023-02-14T00:15:48.977Z,0.00
2023-02-14T00:16:49.068Z,0.00
2023-02-14T00:17:48.885Z,0.00
2023-02-14T00:18:49.304Z,0.00
2023-02-14T00:19:49.026Z,0.00
2023-02-14T00:20:49.106Z,0.00
2023-02-14T00:21:48.961Z,0.00
2023-02-14T00:22:49.195Z,0.00
2023-02-14T00:23:49.051Z,0.00
2023-02-14T00:24:48.943Z,0.00
2023-02-14T00:25:48.886Z,0.00
2023-02-14T00:26:49.098Z,0.00
2023-02-14T00:27:48.823Z,0.00
2023-02-14T00:28:48.868Z,0.00
2023-02-14T00:29:48.849Z,0.00
2023-02-14T00:30:48.842Z,0.00
2023-02-14T00:31:48.983Z,0.00
2023-02-14T00:32:49.109Z,0.00
2023-02-14T00:33:48.794Z,0.00
2023-02-14T00:34:49.033Z,0.00
2023-02-14T00:35:48.785Z,0.00
2023-02-14T00:36:48.965Z,0.00
2023-02-14T00:37:48.856Z,0.00
2023-02-14T00:38:48.661Z,0.00
2023-02-14T00:39:48.757Z,0.00
2023-02-14T00:40:49.027Z,0.00
2023-02-14T00:41:48.792Z,0.00
2023-02-14T00:42:48.675Z,0.00
2023-02-14T00:43:48.759Z,0.00
2023-02-14T00:44:48.811Z,0.00
2023-02-14T00:45:48.674Z,0.00
2023-02-14T00:46:48.965Z,0.00
2023-02-14T00:47:48.632Z,0.00
2023-02-14T00:48:48.638Z,0.00
2023-02-14T00:49:48.596Z,0.00
2023-02-14T00:50:48.631Z,0.00
2023-02-14T00:51:48.653Z,0.00
2023-02-14T00:52:48.585Z,0.00
2023-02-14T00:53:48.662Z,0.00
2023-02-14T00:54:48.511Z,0.00
2023-02-14T00:55:48.558Z,0.00
2023-02-14T00:56:48.401Z,0.00
2023-02-14T00:57:48.743Z,0.00
2023-02-14T00:58:48.487Z,0.00
2023-02-14T00:59:48.649Z,0.00
2023-02-14T01:00:49.225Z,0.00
2023-02-14T01:01:48.428Z,0.00
2023-02-14T01:02:48.604Z,0.00
2023-02-14T01:03:48.463Z,0.00
2023-02-14T01:04:48.624Z,0.00
2023-02-14T01:05:48.454Z,0.00
2023-02-14T01:06:48.368Z,0.00
2023-02-14T01:07:48.707Z,0.00
2023-02-14T01:08:48.391Z,0.00
2023-02-14T01:09:48.503Z,0.00
2023-02-14T01:10:48.367Z,0.00
2023-02-14T01:11:48.905Z,0.00
2023-02-14T01:12:48.474Z,0.00
2023-02-14T01:13:48.325Z,0.00
2023-02-14T01:14:48.424Z,0.00
2023-02-14T01:15:48.302Z,0.00
2023-02-14T01:16:48.435Z,0.00
2023-02-14T01:17:48.307Z,0.00
2023-02-14T01:18:48.324Z,0.00
2023-02-14T01:19:48.333Z,0.00
2023-02-14T01:20:48.226Z,0.00
2023-02-14T01:21:48.300Z,0.00
2023-02-14T01:22:48.296Z,0.00
2023-02-14T01:23:49.089Z,0.00
2023-02-14T01:24:48.195Z,0.00
2023-02-14T01:25:48.325Z,0.00
2023-02-14T01:26:48.197Z,0.00
2023-02-14T01:27:48.239Z,0.00
2023-02-14T01:28:48.157Z,0.00
2023-02-14T01:29:48.150Z,0.00
2023-02-14T01:30:49.118Z,0.00
2023-02-14T01:31:48.229Z,0.00
2023-02-14T01:32:48.311Z,0.00
2023-02-14T01:33:48.089Z,0.00
2023-02-14T01:34:48.140Z,0.00
2023-02-14T01:35:48.123Z,0.00
2023-02-14T01:36:48.297Z,0.00
2023-02-14T01:37:48.933Z,0.00
2023-02-14T01:38:48.069Z,0.00
2023-02-14T01:39:48.167Z,0.00
2023-02-14T01:40:48.047Z,0.00
2023-02-14T01:41:48.046Z,0.00
2023-02-14T01:42:48.003Z,0.00
2023-02-14T01:43:48.055Z,0.00
2023-02-14T01:44:48.073Z,0.00
2023-02-14T01:45:47.977Z,0.00
2023-02-14T01:46:47.993Z,0.00
2023-02-14T01:47:47.986Z,0.00
2023-02-14T01:48:48.100Z,0.00
2023-02-14T01:49:48.020Z,0.00
2023-02-14T01:50:47.905Z,0.00
2023-02-14T01:51:48.109Z,0.00
2023-02-14T01:52:47.935Z,0.00
2023-02-14T01:53:47.909Z,0.00
2023-02-14T01:54:47.994Z,0.00
2023-02-14T01:55:48.045Z,0.00
2023-02-14T01:56:47.852Z,0.00
2023-02-14T01:57:47.859Z,0.00
2023-02-14T01:58:48.011Z,0.00
2023-02-14T01:59:47.878Z,0.00
2023-02-14T02:00:47.847Z,0.00
2023-02-14T02:01:47.860Z,0.00
2023-02-14T02:02:47.976Z,0.00
2023-02-14T02:03:47.881Z,0.00
2023-02-14T02:04:47.850Z,0.00
2023-02-14T02:05:47.791Z,0.00
2023-02-14T02:06:47.751Z,0.00
2023-02-14T02:07:48.577Z,0.00
2023-02-14T02:08:47.753Z,0.00
2023-02-14T02:09:47.886Z,0.00
2023-02-14T02:10:47.767Z,0.00
2023-02-14T02:11:47.754Z,0.00
2023-02-14T02:12:47.882Z,0.00
2023-02-14T02:13:47.761Z,0.00
2023-02-14T02:14:47.784Z,0.00
2023-02-14T02:15:47.743Z,0.00
2023-02-14T02:16:47.924Z,0.00
2023-02-14T02:17:47.736Z,0.00
2023-02-14T02:18:47.713Z,0.00
2023-02-14T02:19:47.730Z,0.00
2023-02-14T02:20:47.689Z,0.00
2023-02-14T02:21:47.758Z,0.00
2023-02-14T02:22:47.695Z,0.00
2023-02-14T02:23:47.624Z,0.00
2023-02-14T02:24:47.632Z,0.00
2023-02-14T02:25:47.637Z,0.00
2023-02-14T02:26:47.594Z,0.00
2023-02-14T02:27:47.642Z,0.00
2023-02-14T02:28:47.641Z,0.00
2023-02-14T02:29:47.642Z,0.00
2023-02-14T02:30:47.687Z,0.00
2023-02-14T02:31:47.661Z,0.00
2023-02-14T02:32:47.682Z,0.00
2023-02-14T02:33:47.561Z,0.00
2023-02-14T02:34:47.626Z,0.00
2023-02-14T02:35:47.644Z,0.00
2023-02-14T02:36:47.482Z,0.00
2023-02-14T02:37:47.615Z,0.00
2023-02-14T02:38:47.516Z,0.00
2023-02-14T02:39:47.531Z,0.00
2023-02-14T02:40:47.586Z,0.00
2023-02-14T02:41:47.503Z,0.00
2023-02-14T02:42:47.519Z,0.00
2023-02-14T02:43:47.482Z,0.00
2023-02-14T02:44:47.413Z,0.00
2023-02-14T02:45:47.519Z,0.00
2023-02-14T02:46:47.873Z,0.00
2023-02-14T02:47:47.413Z,0.00
2023-02-14T02:48:47.416Z,0.00
2023-02-14T02:49:47.393Z,0.00
2023-02-14T02:50:47.436Z,0.00
2023-02-14T02:51:47.496Z,0.00
2023-02-14T02:52:47.409Z,0.00
2023-02-14T02:53:47.441Z,0.00
2023-02-14T02:54:47.423Z,0.00
2023-02-14T02:55:47.418Z,0.00
2023-02-14T02:56:47.380Z,0.00
2023-02-14T02:57:47.392Z,0.00
2023-02-14T02:58:48.108Z,0.00
2023-02-14T02:59:47.311Z,0.00
2023-02-14T03:00:47.223Z,0.00
2023-02-14T03:01:47.320Z,0.00
2023-02-14T03:02:47.260Z,0.00
2023-02-14T03:03:47.308Z,0.00
2023-02-14T03:04:47.301Z,0.00
2023-02-14T03:05:48.138Z,0.00
2023-02-14T03:06:47.205Z,0.00
2023-02-14T03:07:47.398Z,0.00
2023-02-14T03:08:47.292Z,0.00
2023-02-14T03:09:47.276Z,0.00
2023-02-14T03:10:47.194Z,0.00
2023-02-14T03:11:47.149Z,0.00
2023-02-14T03:12:47.209Z,0.00
2023-02-14T03:13:47.167Z,0.00
2023-02-14T03:14:47.195Z,0.00
2023-02-14T03:15:47.177Z,0.00
2023-02-14T03:16:47.203Z,0.00
2023-02-14T03:17:47.218Z,0.00
2023-02-14T03:18:47.186Z,0.00
2023-02-14T03:19:47.260Z,0.00
2023-02-14T03:20:47.238Z,0.00
2023-02-14T03:21:47.188Z,0.00
2023-02-14T03:22:47.155Z,0.00
2023-02-14T03:23:47.310Z,0.00
2023-02-14T03:24:47.060Z,0.00
2023-02-14T03:25:47.126Z,0.00
2023-02-14T03:26:47.711Z,0.00
2023-02-14T03:27:47.057Z,0.00
2023-02-14T03:28:47.104Z,0.00
2023-02-14T03:29:47.169Z,0.00
2023-02-14T03:30:47.221Z,0.00
2023-02-14T03:31:47.225Z,0.00
2023-02-14T03:32:47.029Z,0.00
2023-02-14T03:33:47.102Z,0.00
2023-02-14T03:34:47.044Z,0.00
2023-02-14T03:35:47.114Z,0.00
2023-02-14T03:36:46.917Z,0.00
2023-02-14T03:37:47.025Z,0.00
2023-02-14T03:38:47.130Z,0.00
2023-02-14T03:39:46.857Z,0.00
2023-02-14T03:40:46.970Z,0.00
2023-02-14T03:41:46.928Z,0.00
2023-02-14T03:42:46.932Z,0.00
2023-02-14T03:43:46.914Z,0.00
2023-02-14T03:44:46.946Z,0.00
2023-02-14T03:45:46.958Z,0.00
2023-02-14T03:46:46.930Z,0.00
2023-02-14T03:47:46.837Z,0.00
2023-02-14T03:48:47.936Z,0.00
2023-02-14T03:49:47.696Z,0.00
2023-02-14T03:50:46.803Z,0.00
2023-02-14T03:51:46.885Z,0.00
2023-02-14T03:52:46.789Z,0.00
2023-02-14T03:53:46.787Z,0.00
2023-02-14T03:54:47.729Z,0.00
2023-02-14T03:55:46.836Z,0.00
2023-02-14T03:56:46.785Z,0.00
2023-02-14T03:57:46.690Z,0.00
2023-02-14T03:58:46.917Z,0.00
2023-02-14T03:59:46.747Z,0.00
2023-02-14T04:00:46.813Z,0.00
2023-02-14T04:01:46.774Z,0.00
2023-02-14T04:02:46.661Z,0.00
2023-02-14T04:03:46.668Z,0.00
2023-02-14T04:04:46.671Z,0.00
2023-02-14T04:05:46.805Z,0.00
2023-02-14T04:06:46.680Z,0.00
2023-02-14T04:07:46.718Z,0.00
2023-02-14T04:08:46.664Z,0.00
2023-02-14T04:09:46.623Z,0.00
2023-02-14T04:10:46.769Z,0.00
2023-02-14T04:11:46.582Z,0.00
2023-02-14T04:12:46.679Z,0.00
2023-02-14T04:13:46.630Z,0.00
2023-02-14T04:14:46.707Z,0.00
2023-02-14T04:15:46.704Z,0.00
2023-02-14T04:16:46.567Z,0.00
2023-02-14T04:17:46.633Z,0.00
2023-02-14T04:18:46.554Z,0.00
2023-02-14T04:19:46.599Z,0.00
2023-02-14T04:20:46.459Z,0.00
2023-02-14T04:21:46.683Z,0.00
2023-02-14T04:22:46.452Z,0.00
2023-02-14T04:23:46.610Z,0.00
2023-02-14T04:24:46.506Z,0.00
2023-02-14T04:25:46.459Z,0.00
2023-02-14T04:26:47.006Z,0.00
2023-02-14T04:27:46.510Z,0.00
2023-02-14T04:28:46.634Z,0.00
2023-02-14T04:29:46.410Z,0.00
2023-02-14T04:30:46.507Z,0.00
2023-02-14T04:31:46.519Z,0.00
2023-02-14T04:32:46.453Z,0.00
2023-02-14T04:33:46.446Z,0.00
2023-02-14T04:34:46.373Z,0.00
2023-02-14T04:35:46.394Z,0.00
2023-02-14T04:36:46.378Z,0.00
2023-02-14T04:37:46.313Z,0.00
2023-02-14T04:38:46.358Z,0.00
2023-02-14T04:39:46.357Z,0.00
2023-02-14T04:40:46.367Z,0.00
2023-02-14T04:41:46.320Z,0.00
2023-02-14T04:42:46.331Z,0.00
2023-02-14T04:43:46.273Z,0.00
2023-02-14T04:44:46.297Z,0.00
2023-02-14T04:45:46.294Z,0.00
2023-02-14T04:46:46.426Z,0.00
2023-02-14T04:47:47.070Z,0.00
2023-02-14T04:48:46.278Z,0.00
2023-02-14T04:49:46.270Z,0.00
2023-02-14T04:50:46.213Z,0.00
2023-02-14T04:51:46.324Z,0.00
2023-02-14T04:52:46.193Z,0.00
2023-02-14T04:53:46.194Z,0.00
2023-02-14T04:54:46.231Z,0.00
2023-02-14T04:55:46.123Z,0.00
2023-02-14T04:56:46.265Z,0.00
2023-02-14T04:57:46.176Z,0.00
2023-02-14T04:58:46.302Z,0.00
2023-02-14T04:59:46.156Z,0.00
2023-02-14T05:00:46.120Z,0.00
2023-02-14T05:01:46.152Z,0.00
2023-02-14T05:02:46.172Z,0.00
2023-02-14T05:03:47.063Z,0.00
2023-02-14T05:04:47.174Z,0.00
2023-02-14T05:05:46.050Z,0.00
2023-02-14T05:06:45.995Z,0.00
2023-02-14T05:07:46.030Z,0.00
2023-02-14T05:08:46.139Z,0.00
2023-02-14T05:09:45.980Z,0.00
2023-02-14T05:10:46.070Z,0.00
2023-02-14T05:11:46.038Z,0.00
2023-02-14T05:12:46.043Z,0.00
2023-02-14T05:13:46.022Z,0.00
2023-02-14T05:14:46.025Z,0.00
2023-02-14T05:15:45.952Z,0.00
2023-02-14T05:16:46.059Z,0.00
2023-02-14T05:17:46.557Z,0.00
2023-02-14T05:18:45.942Z,0.00
2023-02-14T05:19:46.049Z,0.00
2023-02-14T05:20:45.914Z,0.00
2023-02-14T05:21:45.913Z,0.00
2023-02-14T05:22:45.859Z,0.00
2023-02-14T05:23:45.887Z,0.00
2023-02-14T05:24:45.997Z,0.00
2023-02-14T05:25:45.826Z,0.00
2023-02-14T05:26:47.057Z,0.00
2023-02-14T05:27:45.865Z,0.00
2023-02-14T05:28:46.378Z,0.00
2023-02-14T05:29:45.768Z,0.00
2023-02-14T05:30:45.898Z,0.00
2023-02-14T05:31:45.882Z,0.00
2023-02-14T05:32:45.824Z,0.00
2023-02-14T05:33:45.840Z,0.00
2023-02-14T05:34:45.847Z,0.00
2023-02-14T05:35:45.703Z,0.00
2023-02-14T05:36:45.921Z,0.00
2023-02-14T05:37:45.733Z,0.00
2023-02-14T05:38:45.696Z,0.00
2023-02-14T05:39:45.693Z,0.00
2023-02-14T05:40:45.817Z,0.00
2023-02-14T05:41:45.733Z,0.00
2023-02-14T05:42:45.810Z,0.00
2023-02-14T05:43:45.718Z,0.00
2023-02-14T05:44:45.738Z,0.00
2023-02-14T05:45:45.693Z,0.00
2023-02-14T05:46:45.685Z,0.00
2023-02-14T05:47:45.792Z,0.00
2023-02-14T05:48:45.648Z,0.00
2023-02-14T05:49:45.693Z,0.00
2023-02-14T05:50:45.600Z,0.00
2023-02-14T05:51:45.592Z,0.00
2023-02-14T05:52:45.564Z,0.00
2023-02-14T05:53:45.619Z,0.00
2023-02-14T05:54:45.602Z,0.00
2023-02-14T05:55:45.574Z,0.00
2023-02-14T05:56:45.577Z,0.00
2023-02-14T05:57:45.621Z,0.00
2023-02-14T05:58:45.551Z,0.00
2023-02-14T05:59:45.569Z,0.00
2023-02-14T06:00:45.531Z,0.00
2023-02-14T06:01:46.495Z,0.00
2023-02-14T06:02:45.552Z,0.00
2023-02-14T06:03:45.660Z,0.00
2023-02-14T06:04:45.500Z,0.00
2023-02-14T06:05:45.539Z,0.00
2023-02-14T06:06:45.510Z,0.00
2023-02-14T06:07:45.491Z,0.00
2023-02-14T06:08:45.535Z,0.00
2023-02-14T06:09:45.429Z,4.00
2023-02-14T06:10:45.680Z,0.00
2023-02-14T06:11:45.460Z,0.00
2023-02-14T06:12:45.430Z,4.00
2023-02-14T06:13:45.431Z,4.00
2023-02-14T06:14:45.430Z,4.00
2023-02-14T06:15:45.403Z,4.00
2023-02-14T06:16:45.509Z,8.00
2023-02-14T06:17:45.366Z,8.00
2023-02-14T06:18:45.412Z,12.00
2023-02-14T06:32:24.462Z,56.00
2023-02-14T06:33:24.376Z,64.00
2023-02-14T06:34:24.428Z,72.00
2023-02-14T06:35:24.403Z,80.00
2023-02-14T06:36:26.220Z,88.00
2023-02-14T06:37:25.694Z,96.00
2023-02-14T06:38:25.656Z,108.00
2023-02-14T06:39:25.598Z,116.00
2023-02-14T06:40:25.555Z,128.00
2023-02-14T06:41:25.574Z,136.00
2023-02-14T06:42:25.561Z,148.00
2023-02-14T06:43:25.559Z,160.00
2023-02-14T06:44:25.511Z,176.00
2023-02-14T06:45:25.577Z,184.00
2023-02-14T06:46:25.564Z,200.00
2023-02-14T06:47:25.498Z,212.00
2023-02-14T06:48:25.512Z,232.00
2023-02-14T06:49:25.562Z,248.00
2023-02-14T06:50:25.506Z,260.00
2023-02-14T06:51:25.461Z,268.00
2023-02-14T06:52:25.426Z,276.00
2023-02-14T06:53:25.419Z,288.00
2023-02-14T06:54:25.460Z,300.00
2023-02-14T06:55:25.437Z,316.00
2023-02-14T06:56:25.423Z,332.00
2023-02-14T06:57:25.468Z,348.00
2023-02-14T06:58:25.352Z,364.00
2023-02-14T06:59:25.394Z,376.00
2023-02-14T07:00:25.358Z,392.00
2023-02-14T07:01:25.392Z,404.00
2023-02-14T07:02:25.379Z,428.00
2023-02-14T07:03:25.355Z,444.00
2023-02-14T07:04:25.346Z,464.00
2023-02-14T07:05:25.289Z,476.00
2023-02-14T07:06:25.305Z,492.00
2023-02-14T07:07:25.247Z,504.00
2023-02-14T07:08:26.296Z,520.00
2023-02-14T07:09:26.267Z,532.00
2023-02-14T07:10:25.229Z,548.00
2023-02-14T07:11:25.407Z,560.00
2023-02-14T07:12:58.131Z,572.00
2023-02-14T07:18:34.474Z,656.00
2023-02-14T07:19:34.538Z,652.00
2023-02-14T07:20:34.445Z,668.00
2023-02-14T07:21:34.503Z,692.00
2023-02-14T07:22:34.413Z,712.00
2023-02-14T07:23:35.543Z,736.00
2023-02-14T07:24:35.608Z,756.00
2023-02-14T07:25:35.501Z,772.00
2023-02-14T07:26:35.552Z,788.00
2023-02-14T07:27:35.494Z,804.00
2023-02-14T07:28:35.683Z,824.00
2023-02-14T07:29:35.516Z,840.00
2023-02-14T07:30:35.553Z,852.00
2023-02-14T07:31:35.650Z,876.00
2023-02-14T07:32:35.423Z,876.00
2023-02-14T07:33:35.440Z,876.00
2023-02-14T07:34:35.425Z,892.00
2023-02-14T07:35:35.412Z,908.00
2023-02-14T07:36:36.178Z,900.00
2023-02-14T07:37:35.441Z,908.00
2023-02-14T07:38:35.387Z,944.00
2023-02-14T07:39:35.416Z,968.00
2023-02-14T07:40:35.402Z,992.00
2023-02-14T07:41:35.329Z,1004.00
2023-02-14T07:42:35.358Z,1044.00
2023-02-14T07:43:35.436Z,1072.00
2023-02-14T07:44:35.337Z,1068.00
2023-02-14T07:45:35.898Z,1084.00
2023-02-14T07:46:35.354Z,1096.00
2023-02-14T07:47:35.293Z,1100.00
2023-02-14T07:48:35.267Z,1104.00
2023-02-14T07:49:35.290Z,1104.00
2023-02-14T07:50:35.250Z,1104.00
2023-02-14T07:51:35.224Z,1120.00
2023-02-14T07:52:35.262Z,1144.00
2023-02-14T07:53:35.218Z,1140.00
2023-02-14T07:54:35.225Z,1148.00
2023-02-14T07:55:35.227Z,1176.00
2023-02-14T07:56:35.213Z,1216.00
2023-02-14T07:57:35.201Z,1236.00
2023-02-14T07:58:35.220Z,1244.00
2023-02-14T07:59:35.185Z,1280.00
2023-02-14T08:00:35.151Z,1308.00
2023-02-14T08:01:35.164Z,1348.00
2023-02-14T08:02:35.147Z,1424.00
2023-02-14T08:03:35.148Z,1440.00
2023-02-14T08:04:35.151Z,1404.00
2023-02-14T08:05:35.096Z,1372.00
2023-02-14T08:06:35.144Z,1380.00
2023-02-14T08:07:35.100Z,1436.00
2023-02-14T08:08:35.054Z,1472.00
2023-02-14T08:09:35.071Z,1480.00
2023-02-14T08:10:35.124Z,1516.00
2023-02-14T08:11:35.031Z,1532.00
2023-02-14T08:12:35.613Z,1540.00
2023-02-14T08:13:35.019Z,1572.00
2023-02-14T08:14:35.129Z,1588.00
2023-02-14T08:15:35.024Z,1556.00
2023-02-14T08:16:35.103Z,1576.00
2023-02-14T08:17:36.630Z,1656.00
2023-02-14T08:18:35.972Z,1676.00
2023-02-14T08:19:34.980Z,1672.00
2023-02-14T08:20:34.939Z,1680.00
2023-02-14T08:21:34.950Z,1692.00
2023-02-14T08:22:34.907Z,1740.00
2023-02-14T08:23:34.929Z,1828.00
2023-02-14T08:24:34.968Z,1896.00
2023-02-14T08:25:34.905Z,1912.00
2023-02-14T08:26:35.884Z,1920.00
2023-02-14T08:27:34.896Z,1900.00
2023-02-14T08:28:34.894Z,1936.00
2023-02-14T08:29:34.894Z,1980.00
2023-02-14T08:30:34.962Z,2008.00
2023-02-14T08:31:36.463Z,2048.00
2023-02-14T08:32:35.978Z,2096.00
2023-02-14T08:33:34.834Z,2112.00
2023-02-14T08:34:34.828Z,2160.00
2023-02-14T08:35:34.831Z,2208.00
2023-02-14T08:36:34.862Z,2244.00
2023-02-14T08:37:34.821Z,2288.00
2023-02-14T08:38:34.797Z,2316.00
2023-02-14T08:39:34.786Z,2336.00
2023-02-14T08:40:34.806Z,2364.00
2023-02-14T08:41:34.765Z,2416.00
2023-02-14T08:42:34.749Z,2444.00
2023-02-14T08:43:34.754Z,2468.00
2023-02-14T08:44:34.717Z,2580.00
2023-02-14T08:45:34.712Z,2588.00
2023-02-14T08:46:34.822Z,2536.00
2023-02-14T08:47:34.674Z,2568.00
2023-02-14T08:48:36.271Z,2536.00
2023-02-14T08:49:34.686Z,2524.00
2023-02-14T08:50:34.669Z,2492.00
2023-02-14T08:51:35.603Z,2464.00
2023-02-14T08:52:34.622Z,2448.00
2023-02-14T08:53:34.769Z,2444.00
2023-02-14T08:54:34.675Z,2512.00
2023-02-14T08:55:34.664Z,2620.00
2023-02-14T08:56:34.699Z,2656.00
2023-02-14T08:57:34.608Z,2620.00
2023-02-14T08:58:34.618Z,2636.00
2023-02-14T08:59:34.643Z,2684.00
2023-02-14T09:00:34.688Z,2736.00
2023-02-14T09:01:34.538Z,2772.00
2023-02-14T09:02:34.693Z,2800.00
2023-02-14T09:03:36.116Z,2840.00
2023-02-14T09:04:34.570Z,2936.00
2023-02-14T09:05:34.765Z,2996.00
2023-02-14T09:06:34.591Z,2980.00
2023-02-14T09:07:34.480Z,3044.00
2023-02-14T09:08:34.510Z,3084.00
2023-02-14T09:09:34.475Z,3004.00
2023-02-14T09:10:34.547Z,2960.00
2023-02-14T09:11:34.461Z,2888.00
2023-02-14T09:12:34.443Z,2740.00
2023-02-14T09:13:34.444Z,2648.00
2023-02-14T09:14:34.552Z,2708.00
2023-02-14T09:15:34.472Z,2832.00
2023-02-14T09:16:34.477Z,2928.00
2023-02-14T09:17:34.481Z,3000.00
2023-02-14T09:18:34.424Z,3060.00
2023-02-14T09:19:34.425Z,3144.00
2023-02-14T09:20:34.481Z,3232.00
2023-02-14T09:21:34.411Z,3312.00
2023-02-14T09:22:34.367Z,3408.00
2023-02-14T09:23:34.321Z,3572.00
2023-02-14T09:24:34.377Z,3712.00
2023-02-14T09:25:34.363Z,3744.00
2023-02-14T09:26:34.305Z,3644.00
2023-02-14T09:27:34.359Z,3568.00
2023-02-14T09:28:34.297Z,3544.00
2023-02-14T09:29:34.351Z,3528.00
2023-02-14T09:30:34.314Z,3608.00
2023-02-14T09:31:34.361Z,3636.00
2023-02-14T09:32:34.285Z,3616.00
2023-02-14T09:33:34.225Z,3556.00
2023-02-14T09:34:34.249Z,3484.00
2023-02-14T09:35:34.235Z,3392.00
2023-02-14T09:36:34.207Z,3456.00
2023-02-14T09:37:34.193Z,3544.00
2023-02-14T09:38:34.233Z,3636.00
2023-02-14T09:39:34.399Z,3640.00
2023-02-14T09:40:34.219Z,3604.00
2023-02-14T09:41:34.338Z,3508.00
2023-02-14T09:42:34.200Z,3524.00
2023-02-14T09:43:34.201Z,3600.00
2023-02-14T09:44:34.143Z,3620.00
2023-02-14T09:45:34.237Z,3656.00
2023-02-14T09:46:34.171Z,3676.00
2023-02-14T09:47:34.119Z,3644.00
2023-02-14T09:48:34.109Z,3716.00
2023-02-14T09:49:34.237Z,3788.00
2023-02-14T09:50:34.122Z,3808.00
2023-02-14T09:51:34.120Z,3852.00
2023-02-14T09:52:34.637Z,3928.00
2023-02-14T09:53:34.071Z,3924.00
2023-02-14T09:54:34.049Z,3948.00
2023-02-14T09:55:34.025Z,3936.00
2023-02-14T09:56:45.945Z,3860.00
2023-02-14T09:57:35.003Z,3856.00
2023-02-14T09:58:33.990Z,3904.00
2023-02-14T09:59:33.988Z,3944.00
2023-02-14T10:00:34.039Z,3912.00
2023-02-14T10:01:34.073Z,3908.00
2023-02-14T10:02:34.027Z,3908.00
2023-02-14T10:03:33.972Z,3904.00
2023-02-14T10:04:33.943Z,3976.00
2023-02-14T10:05:33.981Z,4068.00
2023-02-14T10:06:34.053Z,4068.00
2023-02-14T10:07:33.929Z,4028.00
2023-02-14T10:08:33.972Z,3896.00
2023-02-14T10:09:33.929Z,3844.00
2023-02-14T10:10:33.921Z,3956.00
2023-02-14T10:11:33.933Z,4032.00
2023-02-14T10:12:33.900Z,4120.00
2023-02-14T10:13:34.451Z,4212.00
2023-02-14T10:15:06.483Z,4220.00
2023-02-14T10:16:07.755Z,4256.00
2023-02-14T10:16:34.139Z,4296.00
2023-02-14T10:17:34.013Z,4352.00
2023-02-14T10:18:33.845Z,4380.00
2023-02-14T10:19:33.799Z,4316.00
2023-02-14T10:20:33.848Z,4224.00
2023-02-14T10:21:33.827Z,4140.00
2023-02-14T10:22:33.796Z,4116.00
2023-02-14T10:23:33.848Z,4180.00
2023-02-14T10:24:33.755Z,4276.00
2023-02-14T10:25:33.780Z,4504.00
2023-02-14T10:26:33.799Z,4552.00
2023-02-14T10:27:33.773Z,4608.00
2023-02-14T10:28:33.718Z,4736.00
2023-02-14T10:29:33.712Z,4908.00
2023-02-14T10:30:33.809Z,5064.00
2023-02-14T10:31:33.804Z,5160.00
2023-02-14T10:32:33.685Z,5340.00
2023-02-14T10:33:33.754Z,5424.00
2023-02-14T10:34:33.698Z,5336.00
2023-02-14T10:35:33.671Z,5188.00
2023-02-14T10:36:33.670Z,5088.00
2023-02-14T10:37:33.681Z,5104.00
2023-02-14T10:38:33.617Z,5164.00
2023-02-14T10:39:33.630Z,5132.00
2023-02-14T10:40:33.637Z,5128.00
2023-02-14T10:41:33.581Z,5128.00
2023-02-14T10:42:33.601Z,5012.00
2023-02-14T10:43:33.591Z,5156.00
2023-02-14T10:44:33.590Z,5080.00
2023-02-14T10:45:34.142Z,5064.00
2023-02-14T10:46:33.554Z,5248.00
2023-02-14T10:47:33.744Z,5464.00
2023-02-14T10:48:33.535Z,5608.00
2023-02-14T10:49:33.547Z,5656.00
2023-02-14T10:50:33.536Z,5548.00
2023-02-14T10:52:22.818Z,5256.00
2023-02-14T10:52:34.049Z,5024.00
2023-02-14T10:53:33.707Z,5072.00
2023-02-14T10:54:33.657Z,4992.00
2023-02-14T10:55:33.497Z,4860.00
2023-02-14T10:56:33.481Z,4716.00
2023-02-14T10:57:33.490Z,4776.00
2023-02-14T10:58:33.505Z,4884.00
2023-02-14T10:59:33.532Z,5256.00
2023-02-14T11:00:33.437Z,5456.00
2023-02-14T11:01:33.459Z,5808.00
2023-02-14T11:02:34.128Z,5864.00
2023-02-14T11:03:33.457Z,5844.00
2023-02-14T11:04:34.043Z,5664.00
2023-02-14T11:05:33.373Z,5460.00
2023-02-14T11:06:33.396Z,5556.00
2023-02-14T11:07:33.386Z,5480.00
2023-02-14T11:08:33.355Z,5492.00
2023-02-14T11:09:33.345Z,5476.00
2023-02-14T11:10:33.352Z,5432.00
2023-02-14T11:11:33.334Z,5412.00
2023-02-14T11:12:33.313Z,5232.00
2023-02-14T11:13:33.330Z,5044.00
2023-02-14T11:14:33.294Z,5472.00
2023-02-14T11:15:33.334Z,5692.00
2023-02-14T11:16:33.322Z,6128.00
2023-02-14T11:17:33.372Z,5600.00
2023-02-14T11:18:33.359Z,5340.00
2023-02-14T11:19:34.125Z,5364.00
2023-02-14T11:20:33.268Z,5344.00
2023-02-14T11:21:33.293Z,5316.00
2023-02-14T11:22:33.196Z,5300.00
2023-02-14T11:23:33.187Z,5296.00
2023-02-14T11:24:33.171Z,5340.00
2023-02-14T11:25:33.217Z,5428.00
2023-02-14T11:26:33.200Z,5360.00
2023-02-14T11:27:33.194Z,5088.00
2023-02-14T11:28:33.263Z,4988.00
2023-02-14T11:29:33.169Z,4908.00
2023-02-14T11:30:33.176Z,4868.00
2023-02-14T11:31:33.265Z,4844.00
2023-02-14T11:32:33.120Z,4816.00
2023-02-14T11:33:33.178Z,4788.00
2023-02-14T11:34:33.127Z,4780.00
2023-02-14T11:35:33.066Z,4740.00
2023-02-14T11:36:33.131Z,4744.00
2023-02-14T11:37:33.109Z,4748.00
2023-02-14T11:38:33.034Z,4760.00
2023-02-14T11:39:33.128Z,4752.00
2023-02-14T11:40:33.050Z,4760.00
2023-02-14T11:41:33.064Z,4740.00
2023-02-14T11:42:33.040Z,4744.00
2023-02-14T11:43:33.032Z,4828.00
2023-02-14T11:44:33.000Z,4864.00
2023-02-14T11:45:33.122Z,4852.00
2023-02-14T11:46:36.161Z,4880.00
2023-02-14T11:47:33.942Z,4860.00
2023-02-14T11:48:38.295Z,4320.00
2023-02-14T11:49:34.972Z,5000.00
2023-02-14T11:50:33.537Z,5028.00
2023-02-14T11:51:32.928Z,4996.00
2023-02-14T11:52:32.902Z,5060.00
2023-02-14T11:53:33.713Z,5096.00
2023-02-14T11:54:32.882Z,4980.00
2023-02-14T11:55:32.969Z,5008.00
2023-02-14T11:56:32.862Z,4968.00
2023-02-14T11:57:33.448Z,4976.00
2023-02-14T11:58:32.856Z,5036.00
2023-02-14T11:59:32.873Z,5056.00
2023-02-14T12:00:32.858Z,5064.00
2023-02-14T12:01:32.819Z,5096.00
2023-02-14T12:02:32.855Z,5112.00
2023-02-14T12:03:33.929Z,5148.00
2023-02-14T12:04:38.135Z,5136.00
2023-02-14T12:05:33.772Z,5164.00
2023-02-14T12:06:32.747Z,5176.00
2023-02-14T12:07:32.721Z,5216.00
2023-02-14T12:08:32.711Z,5276.00
2023-02-14T12:09:32.685Z,5316.00
2023-02-14T12:10:32.762Z,5300.00
2023-02-14T12:11:32.730Z,5356.00
2023-02-14T12:12:32.707Z,5440.00
2023-02-14T12:13:32.702Z,5452.00
2023-02-14T12:14:32.707Z,5468.00
2023-02-14T12:15:32.677Z,5468.00
2023-02-14T12:16:32.692Z,5484.00
2023-02-14T12:17:32.733Z,5528.00
2023-02-14T12:18:32.652Z,5584.00
2023-02-14T12:19:32.676Z,5632.00
2023-02-14T12:20:32.574Z,5744.00
2023-02-14T12:21:32.676Z,5768.00
2023-02-14T12:22:32.719Z,5816.00
2023-02-14T12:23:32.911Z,5880.00
2023-02-14T12:24:33.540Z,5932.00
2023-02-14T12:25:32.585Z,5992.00
2023-02-14T12:26:32.570Z,5988.00
2023-02-14T12:27:35.575Z,6084.00
2023-02-14T12:28:33.565Z,6112.00
2023-02-14T12:29:32.529Z,6240.00
2023-02-14T12:30:32.486Z,6332.00
2023-02-14T12:31:32.746Z,7260.00
2023-02-14T12:32:32.519Z,9468.00
2023-02-14T12:33:32.463Z,9712.00
2023-02-14T12:34:32.549Z,10944.00
2023-02-14T12:35:32.485Z,11364.00
2023-02-14T12:36:33.271Z,10824.00
2023-02-14T12:37:32.442Z,11196.00
2023-02-14T12:38:32.545Z,11304.00
2023-02-14T12:39:32.388Z,11024.00
2023-02-14T12:40:33.140Z,11956.00
2023-02-14T12:41:32.428Z,12112.00
2023-02-14T12:42:32.358Z,10912.00
2023-02-14T12:43:32.414Z,10732.00
2023-02-14T12:44:32.367Z,11228.00
2023-02-14T12:45:32.462Z,11760.00
2023-02-14T12:46:32.742Z,11576.00
2023-02-14T12:47:32.308Z,10632.00
2023-02-14T12:48:32.345Z,11128.00
2023-02-14T12:49:32.387Z,12112.00
2023-02-14T12:50:33.419Z,12456.00
2023-02-14T12:51:32.309Z,13244.00
2023-02-14T12:52:32.310Z,12216.00
2023-02-14T12:53:32.336Z,10712.00
2023-02-14T12:54:32.272Z,11956.00
2023-02-14T12:55:32.287Z,14240.00
2023-02-14T12:56:32.236Z,13780.00
2023-02-14T12:57:32.256Z,12344.00
2023-02-14T12:58:32.272Z,13052.00
2023-02-14T12:59:32.242Z,16608.00